sensor_id;sensor_type;location;lat;lon;timestamp;P1;durP1;ratioP1;P2;durP2;ratioP2
5762;SDS011;2906;53.282;9.508;2022-11-27T00:00:16;52.17;;;12.77;;
5762;SDS011;2906;53.282;9.508;2022-11-27T00:01:18;46.90;;;14.05;;
5762;SDS011;2906;53.282;9.508;2022-11-27T00:02:20;40.20;;;13.77;;
5762;SDS011;2906;53.282;9.508;2022-11-27T00:03:23;45.00;;;13.52;;
5762;SDS011;2906;53.282;9.508;2022-11-27T00:04:26;46.95;;;12.13;;
5762;SDS011;2906;53.282;9.508;2022-11-27T00:05:27;39.88;;;13.20;;
5762;SDS011;2906;53.282;9.508;2022-11-27T00:06:30;46.67;;;13.30;;
5762;SDS011;2906;53.282;9.508;2022-11-27T00:07:32;38.50;;;12.13;;
5762;SDS011;2906;53.282;9.508;2022-11-27T00:08:34;47.10;;;14.10;;
5762;SDS011;2906;53.282;9.508;2022-11-27T00:09:35;52.58;;;12.63;;
5762;SDS011;2906;53.282;9.508;2022-11-27T00:10:37;56.03;;;13.82;;
5762;SDS011;2906;53.282;9.508;2022-11-27T00:11:39;44.60;;;12.48;;
5762;SDS011;2906;53.282;9.508;2022-11-27T00:12:41;36.53;;;12.02;;
5762;SDS011;2906;53.282;9.508;2022-11-27T00:13:44;47.97;;;12.02;;
5762;SDS011;2906;53.282;9.508;2022-11-27T00:14:47;60.60;;;12.77;;
5762;SDS011;2906;53.282;9.508;2022-11-27T00:15:48;58.70;;;13.10;;
5762;SDS011;2906;53.282;9.508;2022-11-27T00:16:51;52.88;;;12.23;;
5762;SDS011;2906;53.282;9.508;2022-11-27T00:17:52;43.67;;;13.27;;
5762;SDS011;2906;53.282;9.508;2022-11-27T00:18:56;49.90;;;12.07;;
5762;SDS011;2906;53.282;9.508;2022-11-27T00:19:57;39.28;;;11.50;;
5762;SDS011;2906;53.282;9.508;2022-11-27T00:21:01;52.50;;;12.30;;
5762;SDS011;2906;53.282;9.508;2022-11-27T00:22:02;56.08;;;13.23;;
5762;SDS011;2906;53.282;9.508;2022-11-27T00:23:04;44.13;;;12.30;;
5762;SDS011;2906;53.282;9.508;2022-11-27T00:24:06;46.65;;;12.18;;
5762;SDS011;2906;53.282;9.508;2022-11-27T00:25:09;35.65;;;13.43;;
5762;SDS011;2906;53.282;9.508;2022-11-27T00:26:10;38.45;;;11.32;;
5762;SDS011;2906;53.282;9.508;2022-11-27T00:27:12;40.65;;;11.10;;
5762;SDS011;2906;53.282;9.508;2022-11-27T00:28:14;47.47;;;11.77;;
5762;SDS011;2906;53.282;9.508;2022-11-27T00:29:16;35.15;;;12.30;;
5762;SDS011;2906;53.282;9.508;2022-11-27T00:30:17;35.40;;;11.50;;
5762;SDS011;2906;53.282;9.508;2022-11-27T00:31:20;37.30;;;11.85;;
5762;SDS011;2906;53.282;9.508;2022-11-27T00:32:22;40.38;;;11.35;;
5762;SDS011;2906;53.282;9.508;2022-11-27T00:33:24;64.75;;;13.23;;
5762;SDS011;2906;53.282;9.508;2022-11-27T00:34:27;43.75;;;12.02;;
5762;SDS011;2906;53.282;9.508;2022-11-27T00:35:29;41.25;;;11.75;;
5762;SDS011;2906;53.282;9.508;2022-11-27T00:36:31;48.08;;;12.55;;
5762;SDS011;2906;53.282;9.508;2022-11-27T00:37:34;44.15;;;11.52;;
5762;SDS011;2906;53.282;9.508;2022-11-27T00:38:35;40.80;;;12.40;;
5762;SDS011;2906;53.282;9.508;2022-11-27T00:39:40;38.35;;;12.23;;
5762;SDS011;2906;53.282;9.508;2022-11-27T00:40:42;48.80;;;12.30;;
5762;SDS011;2906;53.282;9.508;2022-11-27T00:41:44;45.88;;;10.95;;
5762;SDS011;2906;53.282;9.508;2022-11-27T00:42:46;47.58;;;11.35;;
5762;SDS011;2906;53.282;9.508;2022-11-27T00:43:48;37.35;;;11.30;;
5762;SDS011;2906;53.282;9.508;2022-11-27T00:44:50;38.00;;;11.75;;
5762;SDS011;2906;53.282;9.508;2022-11-27T00:45:52;48.33;;;10.55;;
5762;SDS011;2906;53.282;9.508;2022-11-27T00:46:54;46.35;;;12.13;;
5762;SDS011;2906;53.282;9.508;2022-11-27T00:47:56;62.17;;;11.73;;
5762;SDS011;2906;53.282;9.508;2022-11-27T00:48:58;48.03;;;12.57;;
5762;SDS011;2906;53.282;9.508;2022-11-27T00:50:02;38.75;;;11.02;;
5762;SDS011;2906;53.282;9.508;2022-11-27T00:51:04;48.33;;;12.68;;
5762;SDS011;2906;53.282;9.508;2022-11-27T00:52:07;42.85;;;12.10;;
5762;SDS011;2906;53.282;9.508;2022-11-27T00:53:08;42.70;;;11.18;;
5762;SDS011;2906;53.282;9.508;2022-11-27T00:54:10;45.92;;;10.85;;
5762;SDS011;2906;53.282;9.508;2022-11-27T00:55:12;40.20;;;12.63;;
5762;SDS011;2906;53.282;9.508;2022-11-27T00:56:14;40.10;;;11.75;;
5762;SDS011;2906;53.282;9.508;2022-11-27T00:57:16;46.35;;;11.07;;
5762;SDS011;2906;53.282;9.508;2022-11-27T00:58:18;50.78;;;10.85;;
5762;SDS011;2906;53.282;9.508;2022-11-27T00:59:20;45.58;;;11.40;;
5762;SDS011;2906;53.282;9.508;2022-11-27T01:00:22;48.28;;;11.20;;
5762;SDS011;2906;53.282;9.508;2022-11-27T01:01:24;43.10;;;10.68;;
5762;SDS011;2906;53.282;9.508;2022-11-27T01:02:26;59.85;;;11.18;;
5762;SDS011;2906;53.282;9.508;2022-11-27T01:03:28;33.90;;;11.68;;
5762;SDS011;2906;53.282;9.508;2022-11-27T01:04:30;39.50;;;12.25;;
5762;SDS011;2906;53.282;9.508;2022-11-27T01:05:35;39.72;;;11.05;;
5762;SDS011;2906;53.282;9.508;2022-11-27T01:06:37;32.38;;;10.40;;
5762;SDS011;2906;53.282;9.508;2022-11-27T01:07:39;54.08;;;10.73;;
5762;SDS011;2906;53.282;9.508;2022-11-27T01:08:41;39.83;;;10.77;;
5762;SDS011;2906;53.282;9.508;2022-11-27T01:09:44;38.55;;;11.10;;
5762;SDS011;2906;53.282;9.508;2022-11-27T01:10:48;31.90;;;10.18;;
5762;SDS011;2906;53.282;9.508;2022-11-27T01:11:51;48.80;;;11.35;;
5762;SDS011;2906;53.282;9.508;2022-11-27T01:12:53;43.33;;;10.88;;
5762;SDS011;2906;53.282;9.508;2022-11-27T01:13:56;46.92;;;10.00;;
5762;SDS011;2906;53.282;9.508;2022-11-27T01:14:58;40.22;;;10.50;;
5762;SDS011;2906;53.282;9.508;2022-11-27T01:16:00;35.63;;;9.98;;
5762;SDS011;2906;53.282;9.508;2022-11-27T01:17:03;35.40;;;10.38;;
5762;SDS011;2906;53.282;9.508;2022-11-27T01:18:05;36.53;;;10.25;;
5762;SDS011;2906;53.282;9.508;2022-11-27T01:19:08;46.72;;;10.38;;
5762;SDS011;2906;53.282;9.508;2022-11-27T01:20:11;33.40;;;11.18;;
5762;SDS011;2906;53.282;9.508;2022-11-27T01:21:14;40.63;;;10.10;;
5762;SDS011;2906;53.282;9.508;2022-11-27T01:22:17;38.22;;;10.23;;
5762;SDS011;2906;53.282;9.508;2022-11-27T01:23:18;38.30;;;11.38;;
5762;SDS011;2906;53.282;9.508;2022-11-27T01:24:21;37.45;;;9.45;;
5762;SDS011;2906;53.282;9.508;2022-11-27T01:25:22;44.42;;;9.18;;
5762;SDS011;2906;53.282;9.508;2022-11-27T01:26:25;37.95;;;11.32;;
5762;SDS011;2906;53.282;9.508;2022-11-27T01:27:26;31.10;;;9.15;;
5762;SDS011;2906;53.282;9.508;2022-11-27T01:28:29;44.00;;;11.30;;
5762;SDS011;2906;53.282;9.508;2022-11-27T01:29:30;33.35;;;10.52;;
5762;SDS011;2906;53.282;9.508;2022-11-27T01:30:32;32.63;;;10.70;;
5762;SDS011;2906;53.282;9.508;2022-11-27T01:31:34;32.05;;;10.10;;
5762;SDS011;2906;53.282;9.508;2022-11-27T01:32:36;37.35;;;10.88;;
5762;SDS011;2906;53.282;9.508;2022-11-27T01:33:37;36.92;;;10.98;;
5762;SDS011;2906;53.282;9.508;2022-11-27T01:34:40;32.47;;;10.52;;
5762;SDS011;2906;53.282;9.508;2022-11-27T01:35:41;47.55;;;10.40;;
5762;SDS011;2906;53.282;9.508;2022-11-27T01:36:45;38.30;;;10.10;;
5762;SDS011;2906;53.282;9.508;2022-11-27T01:37:46;40.67;;;10.68;;
5762;SDS011;2906;53.282;9.508;2022-11-27T01:38:50;48.67;;;10.60;;
5762;SDS011;2906;53.282;9.508;2022-11-27T01:39:52;46.90;;;10.55;;
5762;SDS011;2906;53.282;9.508;2022-11-27T01:40:55;48.45;;;12.15;;
5762;SDS011;2906;53.282;9.508;2022-11-27T01:41:57;41.60;;;10.60;;
5762;SDS011;2906;53.282;9.508;2022-11-27T01:43:00;41.00;;;10.77;;
5762;SDS011;2906;53.282;9.508;2022-11-27T01:44:02;38.45;;;10.18;;
5762;SDS011;2906;53.282;9.508;2022-11-27T01:45:07;38.88;;;11.18;;
5762;SDS011;2906;53.282;9.508;2022-11-27T01:47:30;43.05;;;10.63;;
5762;SDS011;2906;53.282;9.508;2022-11-27T01:48:32;37.22;;;10.63;;
5762;SDS011;2906;53.282;9.508;2022-11-27T01:49:35;33.78;;;10.52;;
5762;SDS011;2906;53.282;9.508;2022-11-27T01:50:38;30.80;;;10.60;;
5762;SDS011;2906;53.282;9.508;2022-11-27T01:51:42;48.58;;;10.02;;
5762;SDS011;2906;53.282;9.508;2022-11-27T01:52:49;41.90;;;11.23;;
5762;SDS011;2906;53.282;9.508;2022-11-27T01:53:52;40.53;;;12.32;;
5762;SDS011;2906;53.282;9.508;2022-11-27T01:54:55;40.10;;;10.50;;
5762;SDS011;2906;53.282;9.508;2022-11-27T01:55:58;44.28;;;11.13;;
5762;SDS011;2906;53.282;9.508;2022-11-27T01:57:02;39.38;;;11.35;;
5762;SDS011;2906;53.282;9.508;2022-11-27T01:58:06;30.40;;;10.20;;
5762;SDS011;2906;53.282;9.508;2022-11-27T01:59:09;43.55;;;11.65;;
5762;SDS011;2906;53.282;9.508;2022-11-27T02:00:12;58.15;;;11.82;;
5762;SDS011;2906;53.282;9.508;2022-11-27T02:01:15;37.58;;;11.43;;
5762;SDS011;2906;53.282;9.508;2022-11-27T02:02:16;48.22;;;11.15;;
5762;SDS011;2906;53.282;9.508;2022-11-27T02:03:19;40.13;;;11.48;;
5762;SDS011;2906;53.282;9.508;2022-11-27T02:04:20;36.65;;;10.90;;
5762;SDS011;2906;53.282;9.508;2022-11-27T02:05:24;41.28;;;10.68;;
5762;SDS011;2906;53.282;9.508;2022-11-27T02:06:27;40.28;;;10.85;;
5762;SDS011;2906;53.282;9.508;2022-11-27T02:07:30;34.70;;;11.43;;
5762;SDS011;2906;53.282;9.508;2022-11-27T02:08:32;33.95;;;10.27;;
5762;SDS011;2906;53.282;9.508;2022-11-27T02:09:35;37.97;;;11.40;;
5762;SDS011;2906;53.282;9.508;2022-11-27T02:10:45;45.13;;;12.20;;
5762;SDS011;2906;53.282;9.508;2022-11-27T02:11:50;46.08;;;11.35;;
5762;SDS011;2906;53.282;9.508;2022-11-27T02:12:55;33.58;;;12.23;;
5762;SDS011;2906;53.282;9.508;2022-11-27T02:14:02;41.38;;;11.77;;
5762;SDS011;2906;53.282;9.508;2022-11-27T02:15:07;41.50;;;12.55;;
5762;SDS011;2906;53.282;9.508;2022-11-27T02:16:12;40.95;;;12.13;;
5762;SDS011;2906;53.282;9.508;2022-11-27T02:17:19;38.95;;;11.60;;
5762;SDS011;2906;53.282;9.508;2022-11-27T02:18:26;40.60;;;12.38;;
5762;SDS011;2906;53.282;9.508;2022-11-27T02:19:42;58.17;;;12.77;;
5762;SDS011;2906;53.282;9.508;2022-11-27T02:20:50;37.38;;;11.32;;
5762;SDS011;2906;53.282;9.508;2022-11-27T02:21:55;29.50;;;10.75;;
5762;SDS011;2906;53.282;9.508;2022-11-27T02:23:05;43.25;;;11.90;;
5762;SDS011;2906;53.282;9.508;2022-11-27T02:24:19;40.67;;;12.02;;
5762;SDS011;2906;53.282;9.508;2022-11-27T02:25:29;41.58;;;11.95;;
5762;SDS011;2906;53.282;9.508;2022-11-27T02:26:41;39.03;;;12.95;;
5762;SDS011;2906;53.282;9.508;2022-11-27T02:27:51;38.25;;;11.80;;
5762;SDS011;2906;53.282;9.508;2022-11-27T02:29:00;46.20;;;13.35;;
5762;SDS011;2906;53.282;9.508;2022-11-27T02:30:02;45.45;;;12.13;;
5762;SDS011;2906;53.282;9.508;2022-11-27T02:31:08;40.13;;;11.70;;
5762;SDS011;2906;53.282;9.508;2022-11-27T02:32:11;43.13;;;12.05;;
5762;SDS011;2906;53.282;9.508;2022-11-27T02:33:15;42.42;;;13.55;;
5762;SDS011;2906;53.282;9.508;2022-11-27T02:34:21;45.47;;;12.85;;
5762;SDS011;2906;53.282;9.508;2022-11-27T02:35:27;36.70;;;11.35;;
5762;SDS011;2906;53.282;9.508;2022-11-27T02:36:31;44.40;;;11.73;;
5762;SDS011;2906;53.282;9.508;2022-11-27T02:37:34;40.40;;;11.80;;
5762;SDS011;2906;53.282;9.508;2022-11-27T02:38:38;41.53;;;12.27;;
5762;SDS011;2906;53.282;9.508;2022-11-27T02:39:42;34.47;;;12.13;;
5762;SDS011;2906;53.282;9.508;2022-11-27T02:40:47;49.53;;;12.27;;
5762;SDS011;2906;53.282;9.508;2022-11-27T02:41:53;41.97;;;13.32;;
5762;SDS011;2906;53.282;9.508;2022-11-27T02:42:57;59.53;;;12.00;;
5762;SDS011;2906;53.282;9.508;2022-11-27T02:44:01;41.53;;;12.43;;
5762;SDS011;2906;53.282;9.508;2022-11-27T02:45:04;37.40;;;12.73;;
5762;SDS011;2906;53.282;9.508;2022-11-27T02:46:08;37.05;;;12.40;;
5762;SDS011;2906;53.282;9.508;2022-11-27T02:47:10;41.83;;;11.90;;
5762;SDS011;2906;53.282;9.508;2022-11-27T02:48:15;42.40;;;12.00;;
5762;SDS011;2906;53.282;9.508;2022-11-27T02:49:17;39.72;;;11.65;;
5762;SDS011;2906;53.282;9.508;2022-11-27T02:50:20;45.58;;;13.35;;
5762;SDS011;2906;53.282;9.508;2022-11-27T02:51:24;39.15;;;13.30;;
5762;SDS011;2906;53.282;9.508;2022-11-27T02:52:27;36.55;;;13.30;;
5762;SDS011;2906;53.282;9.508;2022-11-27T02:53:29;36.25;;;12.00;;
5762;SDS011;2906;53.282;9.508;2022-11-27T02:54:32;41.03;;;13.50;;
5762;SDS011;2906;53.282;9.508;2022-11-27T02:55:34;51.85;;;13.68;;
5762;SDS011;2906;53.282;9.508;2022-11-27T02:56:37;41.53;;;13.30;;
5762;SDS011;2906;53.282;9.508;2022-11-27T02:57:39;41.72;;;13.25;;
5762;SDS011;2906;53.282;9.508;2022-11-27T02:58:42;44.20;;;12.35;;
5762;SDS011;2906;53.282;9.508;2022-11-27T02:59:47;37.10;;;12.15;;
5762;SDS011;2906;53.282;9.508;2022-11-27T03:00:51;44.83;;;13.73;;
5762;SDS011;2906;53.282;9.508;2022-11-27T03:01:53;44.95;;;12.00;;
5762;SDS011;2906;53.282;9.508;2022-11-27T03:02:58;48.30;;;14.48;;
5762;SDS011;2906;53.282;9.508;2022-11-27T03:04:01;28.27;;;11.90;;
5762;SDS011;2906;53.282;9.508;2022-11-27T03:05:04;42.85;;;12.45;;
5762;SDS011;2906;53.282;9.508;2022-11-27T03:06:07;48.83;;;12.60;;
5762;SDS011;2906;53.282;9.508;2022-11-27T03:07:13;35.75;;;12.40;;
5762;SDS011;2906;53.282;9.508;2022-11-27T03:08:17;35.05;;;13.40;;
5762;SDS011;2906;53.282;9.508;2022-11-27T03:09:23;34.78;;;12.85;;
5762;SDS011;2906;53.282;9.508;2022-11-27T03:10:26;45.92;;;14.02;;
5762;SDS011;2906;53.282;9.508;2022-11-27T03:11:30;44.53;;;14.43;;
5762;SDS011;2906;53.282;9.508;2022-11-27T03:12:32;37.75;;;13.27;;
5762;SDS011;2906;53.282;9.508;2022-11-27T03:13:35;36.50;;;13.52;;
5762;SDS011;2906;53.282;9.508;2022-11-27T03:14:37;47.72;;;13.77;;
5762;SDS011;2906;53.282;9.508;2022-11-27T03:15:44;50.88;;;16.73;;
5762;SDS011;2906;53.282;9.508;2022-11-27T03:16:48;45.47;;;15.65;;
5762;SDS011;2906;53.282;9.508;2022-11-27T03:17:55;48.20;;;18.05;;
5762;SDS011;2906;53.282;9.508;2022-11-27T03:19:01;54.72;;;17.45;;
5762;SDS011;2906;53.282;9.508;2022-11-27T03:20:08;58.35;;;19.10;;
5762;SDS011;2906;53.282;9.508;2022-11-27T03:21:14;43.33;;;16.45;;
5762;SDS011;2906;53.282;9.508;2022-11-27T03:22:17;46.85;;;16.73;;
5762;SDS011;2906;53.282;9.508;2022-11-27T03:23:20;46.45;;;18.50;;
5762;SDS011;2906;53.282;9.508;2022-11-27T03:24:21;49.35;;;18.67;;
5762;SDS011;2906;53.282;9.508;2022-11-27T03:25:27;40.58;;;18.65;;
5762;SDS011;2906;53.282;9.508;2022-11-27T03:26:29;43.72;;;19.55;;
5762;SDS011;2906;53.282;9.508;2022-11-27T03:27:33;51.22;;;19.60;;
5762;SDS011;2906;53.282;9.508;2022-11-27T03:28:35;54.40;;;19.27;;
5762;SDS011;2906;53.282;9.508;2022-11-27T03:29:38;50.85;;;18.98;;
5762;SDS011;2906;53.282;9.508;2022-11-27T03:30:42;55.25;;;18.88;;
5762;SDS011;2906;53.282;9.508;2022-11-27T03:31:45;54.00;;;20.40;;
5762;SDS011;2906;53.282;9.508;2022-11-27T03:32:46;52.08;;;18.02;;
5762;SDS011;2906;53.282;9.508;2022-11-27T03:33:49;44.20;;;17.05;;
5762;SDS011;2906;53.282;9.508;2022-11-27T03:34:50;52.67;;;17.67;;
5762;SDS011;2906;53.282;9.508;2022-11-27T03:35:53;51.80;;;16.90;;
5762;SDS011;2906;53.282;9.508;2022-11-27T03:36:54;52.03;;;17.42;;
5762;SDS011;2906;53.282;9.508;2022-11-27T03:37:56;49.67;;;16.48;;
5762;SDS011;2906;53.282;9.508;2022-11-27T03:38:58;41.80;;;16.25;;
5762;SDS011;2906;53.282;9.508;2022-11-27T03:40:00;55.05;;;19.23;;
5762;SDS011;2906;53.282;9.508;2022-11-27T03:41:03;55.47;;;19.58;;
5762;SDS011;2906;53.282;9.508;2022-11-27T03:42:10;59.75;;;20.75;;
5762;SDS011;2906;53.282;9.508;2022-11-27T03:43:16;44.38;;;18.25;;
5762;SDS011;2906;53.282;9.508;2022-11-27T03:44:21;45.63;;;18.17;;
5762;SDS011;2906;53.282;9.508;2022-11-27T03:45:27;55.38;;;19.65;;
5762;SDS011;2906;53.282;9.508;2022-11-27T03:46:34;47.65;;;18.05;;
5762;SDS011;2906;53.282;9.508;2022-11-27T03:47:42;69.88;;;18.35;;
5762;SDS011;2906;53.282;9.508;2022-11-27T03:48:47;52.03;;;19.58;;
5762;SDS011;2906;53.282;9.508;2022-11-27T03:49:56;53.63;;;19.25;;
5762;SDS011;2906;53.282;9.508;2022-11-27T03:51:02;42.85;;;18.33;;
5762;SDS011;2906;53.282;9.508;2022-11-27T03:52:10;50.40;;;18.88;;
5762;SDS011;2906;53.282;9.508;2022-11-27T03:53:18;41.50;;;17.38;;
5762;SDS011;2906;53.282;9.508;2022-11-27T03:54:25;51.58;;;17.65;;
5762;SDS011;2906;53.282;9.508;2022-11-27T03:55:30;47.03;;;16.02;;
5762;SDS011;2906;53.282;9.508;2022-11-27T03:56:35;43.03;;;17.58;;
5762;SDS011;2906;53.282;9.508;2022-11-27T03:57:39;46.03;;;16.50;;
5762;SDS011;2906;53.282;9.508;2022-11-27T03:58:44;47.05;;;16.55;;
5762;SDS011;2906;53.282;9.508;2022-11-27T03:59:46;54.65;;;16.55;;
5762;SDS011;2906;53.282;9.508;2022-11-27T04:00:49;52.25;;;17.15;;
5762;SDS011;2906;53.282;9.508;2022-11-27T04:01:53;55.00;;;17.27;;
5762;SDS011;2906;53.282;9.508;2022-11-27T04:02:55;50.80;;;16.40;;
5762;SDS011;2906;53.282;9.508;2022-11-27T04:03:56;47.30;;;16.52;;
5762;SDS011;2906;53.282;9.508;2022-11-27T04:04:59;44.65;;;17.20;;
5762;SDS011;2906;53.282;9.508;2022-11-27T04:06:00;40.50;;;15.98;;
5762;SDS011;2906;53.282;9.508;2022-11-27T04:07:03;54.25;;;18.00;;
5762;SDS011;2906;53.282;9.508;2022-11-27T04:08:04;57.35;;;17.90;;
5762;SDS011;2906;53.282;9.508;2022-11-27T04:09:06;44.45;;;15.82;;
5762;SDS011;2906;53.282;9.508;2022-11-27T04:10:09;51.80;;;17.48;;
5762;SDS011;2906;53.282;9.508;2022-11-27T04:11:11;46.03;;;18.10;;
5762;SDS011;2906;53.282;9.508;2022-11-27T04:12:13;45.55;;;17.77;;
5762;SDS011;2906;53.282;9.508;2022-11-27T04:13:15;54.08;;;19.73;;
5762;SDS011;2906;53.282;9.508;2022-11-27T04:14:18;51.40;;;20.45;;
5762;SDS011;2906;53.282;9.508;2022-11-27T04:15:19;55.47;;;20.70;;
5762;SDS011;2906;53.282;9.508;2022-11-27T04:16:21;60.20;;;22.60;;
5762;SDS011;2906;53.282;9.508;2022-11-27T04:17:24;76.68;;;25.10;;
5762;SDS011;2906;53.282;9.508;2022-11-27T04:18:26;58.53;;;21.73;;
5762;SDS011;2906;53.282;9.508;2022-11-27T04:19:28;54.63;;;22.80;;
5762;SDS011;2906;53.282;9.508;2022-11-27T04:20:30;48.38;;;21.20;;
5762;SDS011;2906;53.282;9.508;2022-11-27T04:21:31;52.13;;;21.98;;
5762;SDS011;2906;53.282;9.508;2022-11-27T04:22:34;49.50;;;20.88;;
5762;SDS011;2906;53.282;9.508;2022-11-27T04:23:35;52.40;;;19.98;;
5762;SDS011;2906;53.282;9.508;2022-11-27T04:24:37;50.22;;;19.80;;
5762;SDS011;2906;53.282;9.508;2022-11-27T04:25:39;58.40;;;17.73;;
5762;SDS011;2906;53.282;9.508;2022-11-27T04:26:41;45.22;;;16.63;;
5762;SDS011;2906;53.282;9.508;2022-11-27T04:27:43;42.80;;;17.83;;
5762;SDS011;2906;53.282;9.508;2022-11-27T04:28:45;48.50;;;18.65;;
5762;SDS011;2906;53.282;9.508;2022-11-27T04:29:46;49.53;;;18.60;;
5762;SDS011;2906;53.282;9.508;2022-11-27T04:30:49;55.78;;;20.55;;
5762;SDS011;2906;53.282;9.508;2022-11-27T04:31:51;51.63;;;20.10;;
5762;SDS011;2906;53.282;9.508;2022-11-27T04:32:55;49.40;;;20.63;;
5762;SDS011;2906;53.282;9.508;2022-11-27T04:33:56;50.03;;;20.45;;
5762;SDS011;2906;53.282;9.508;2022-11-27T04:34:58;53.20;;;20.80;;
5762;SDS011;2906;53.282;9.508;2022-11-27T04:36:00;54.88;;;20.80;;
5762;SDS011;2906;53.282;9.508;2022-11-27T04:37:02;52.53;;;19.77;;
5762;SDS011;2906;53.282;9.508;2022-11-27T04:38:04;61.17;;;21.75;;
5762;SDS011;2906;53.282;9.508;2022-11-27T04:39:06;59.13;;;20.58;;
5762;SDS011;2906;53.282;9.508;2022-11-27T04:40:08;49.55;;;19.77;;
5762;SDS011;2906;53.282;9.508;2022-11-27T04:41:10;50.97;;;19.23;;
5762;SDS011;2906;53.282;9.508;2022-11-27T04:42:12;49.80;;;18.88;;
5762;SDS011;2906;53.282;9.508;2022-11-27T04:43:14;53.90;;;19.83;;
5762;SDS011;2906;53.282;9.508;2022-11-27T04:44:16;49.42;;;19.08;;
5762;SDS011;2906;53.282;9.508;2022-11-27T04:45:18;48.65;;;19.42;;
5762;SDS011;2906;53.282;9.508;2022-11-27T04:46:20;58.38;;;20.20;;
5762;SDS011;2906;53.282;9.508;2022-11-27T04:47:23;45.95;;;17.05;;
5762;SDS011;2906;53.282;9.508;2022-11-27T04:48:25;59.60;;;18.88;;
5762;SDS011;2906;53.282;9.508;2022-11-27T04:49:28;54.33;;;19.02;;
5762;SDS011;2906;53.282;9.508;2022-11-27T04:50:29;60.78;;;17.73;;
5762;SDS011;2906;53.282;9.508;2022-11-27T04:51:32;41.22;;;16.92;;
5762;SDS011;2906;53.282;9.508;2022-11-27T04:52:39;50.80;;;16.52;;
5762;SDS011;2906;53.282;9.508;2022-11-27T04:53:42;50.72;;;17.75;;
5762;SDS011;2906;53.282;9.508;2022-11-27T04:54:43;57.30;;;18.80;;
5762;SDS011;2906;53.282;9.508;2022-11-27T04:55:45;54.88;;;17.95;;
5762;SDS011;2906;53.282;9.508;2022-11-27T04:56:46;49.05;;;17.60;;
5762;SDS011;2906;53.282;9.508;2022-11-27T04:57:49;44.28;;;17.30;;
5762;SDS011;2906;53.282;9.508;2022-11-27T04:58:50;67.90;;;17.25;;
5762;SDS011;2906;53.282;9.508;2022-11-27T04:59:52;48.15;;;20.02;;
5762;SDS011;2906;53.282;9.508;2022-11-27T05:00:54;47.20;;;19.13;;
5762;SDS011;2906;53.282;9.508;2022-11-27T05:01:56;63.60;;;19.80;;
5762;SDS011;2906;53.282;9.508;2022-11-27T05:02:58;55.88;;;20.05;;
5762;SDS011;2906;53.282;9.508;2022-11-27T05:04:02;55.88;;;19.20;;
5762;SDS011;2906;53.282;9.508;2022-11-27T05:05:03;53.00;;;17.38;;
5762;SDS011;2906;53.282;9.508;2022-11-27T05:06:06;37.08;;;16.15;;
5762;SDS011;2906;53.282;9.508;2022-11-27T05:07:08;44.85;;;17.10;;
5762;SDS011;2906;53.282;9.508;2022-11-27T05:08:10;44.75;;;17.63;;
5762;SDS011;2906;53.282;9.508;2022-11-27T05:09:11;53.60;;;18.00;;
5762;SDS011;2906;53.282;9.508;2022-11-27T05:10:13;47.13;;;16.77;;
5762;SDS011;2906;53.282;9.508;2022-11-27T05:11:15;47.85;;;16.42;;
5762;SDS011;2906;53.282;9.508;2022-11-27T05:12:18;52.08;;;17.13;;
5762;SDS011;2906;53.282;9.508;2022-11-27T05:13:20;43.80;;;15.57;;
5762;SDS011;2906;53.282;9.508;2022-11-27T05:14:21;50.47;;;17.35;;
5762;SDS011;2906;53.282;9.508;2022-11-27T05:15:28;46.28;;;16.38;;
5762;SDS011;2906;53.282;9.508;2022-11-27T05:16:29;47.08;;;16.15;;
5762;SDS011;2906;53.282;9.508;2022-11-27T05:17:32;41.00;;;15.07;;
5762;SDS011;2906;53.282;9.508;2022-11-27T05:18:33;59.03;;;17.85;;
5762;SDS011;2906;53.282;9.508;2022-11-27T05:19:37;54.78;;;17.25;;
5762;SDS011;2906;53.282;9.508;2022-11-27T05:20:38;40.50;;;16.05;;
5762;SDS011;2906;53.282;9.508;2022-11-27T05:21:41;45.85;;;17.42;;
5762;SDS011;2906;53.282;9.508;2022-11-27T05:22:42;43.95;;;16.40;;
5762;SDS011;2906;53.282;9.508;2022-11-27T05:23:45;51.30;;;16.15;;
5762;SDS011;2906;53.282;9.508;2022-11-27T05:24:46;48.47;;;17.98;;
5762;SDS011;2906;53.282;9.508;2022-11-27T05:25:49;47.55;;;17.20;;
5762;SDS011;2906;53.282;9.508;2022-11-27T05:26:50;48.80;;;17.83;;
5762;SDS011;2906;53.282;9.508;2022-11-27T05:27:53;45.65;;;17.65;;
5762;SDS011;2906;53.282;9.508;2022-11-27T05:28:54;49.50;;;16.85;;
5762;SDS011;2906;53.282;9.508;2022-11-27T05:29:56;44.17;;;16.45;;
5762;SDS011;2906;53.282;9.508;2022-11-27T05:30:58;45.97;;;16.58;;
5762;SDS011;2906;53.282;9.508;2022-11-27T05:32:00;44.80;;;16.63;;
5762;SDS011;2906;53.282;9.508;2022-11-27T05:33:02;53.10;;;15.50;;
5762;SDS011;2906;53.282;9.508;2022-11-27T05:34:04;48.47;;;16.80;;
5762;SDS011;2906;53.282;9.508;2022-11-27T05:35:07;41.72;;;16.15;;
5762;SDS011;2906;53.282;9.508;2022-11-27T05:36:10;51.70;;;17.23;;
5762;SDS011;2906;53.282;9.508;2022-11-27T05:37:11;50.67;;;18.80;;
5762;SDS011;2906;53.282;9.508;2022-11-27T05:38:14;46.15;;;16.67;;
5762;SDS011;2906;53.282;9.508;2022-11-27T05:39:15;46.38;;;17.20;;
5762;SDS011;2906;53.282;9.508;2022-11-27T05:40:18;50.78;;;16.70;;
5762;SDS011;2906;53.282;9.508;2022-11-27T05:41:22;56.45;;;16.98;;
5762;SDS011;2906;53.282;9.508;2022-11-27T05:42:25;43.38;;;16.50;;
5762;SDS011;2906;53.282;9.508;2022-11-27T05:43:26;53.10;;;17.55;;
5762;SDS011;2906;53.282;9.508;2022-11-27T05:44:29;43.22;;;16.45;;
5762;SDS011;2906;53.282;9.508;2022-11-27T05:45:30;46.13;;;16.40;;
5762;SDS011;2906;53.282;9.508;2022-11-27T05:46:32;55.63;;;16.38;;
5762;SDS011;2906;53.282;9.508;2022-11-27T05:47:34;58.15;;;16.85;;
5762;SDS011;2906;53.282;9.508;2022-11-27T05:48:36;51.70;;;17.55;;
5762;SDS011;2906;53.282;9.508;2022-11-27T05:49:38;46.05;;;16.63;;
5762;SDS011;2906;53.282;9.508;2022-11-27T05:50:42;43.03;;;16.15;;
5762;SDS011;2906;53.282;9.508;2022-11-27T05:51:43;51.65;;;16.70;;
5762;SDS011;2906;53.282;9.508;2022-11-27T05:52:45;57.03;;;16.08;;
5762;SDS011;2906;53.282;9.508;2022-11-27T05:53:47;49.70;;;16.95;;
5762;SDS011;2906;53.282;9.508;2022-11-27T05:54:49;52.85;;;15.93;;
5762;SDS011;2906;53.282;9.508;2022-11-27T05:55:51;47.38;;;16.65;;
5762;SDS011;2906;53.282;9.508;2022-11-27T05:56:53;42.90;;;16.08;;
5762;SDS011;2906;53.282;9.508;2022-11-27T05:57:55;49.63;;;17.98;;
5762;SDS011;2906;53.282;9.508;2022-11-27T05:58:57;46.83;;;17.40;;
5762;SDS011;2906;53.282;9.508;2022-11-27T05:59:58;46.53;;;16.42;;
5762;SDS011;2906;53.282;9.508;2022-11-27T06:01:01;48.25;;;18.00;;
5762;SDS011;2906;53.282;9.508;2022-11-27T06:02:02;42.85;;;16.50;;
5762;SDS011;2906;53.282;9.508;2022-11-27T06:03:05;45.22;;;17.05;;
5762;SDS011;2906;53.282;9.508;2022-11-27T06:04:06;41.00;;;16.60;;
5762;SDS011;2906;53.282;9.508;2022-11-27T06:05:09;42.13;;;15.98;;
5762;SDS011;2906;53.282;9.508;2022-11-27T06:06:12;47.33;;;15.18;;
5762;SDS011;2906;53.282;9.508;2022-11-27T06:07:15;56.30;;;16.55;;
5762;SDS011;2906;53.282;9.508;2022-11-27T06:08:16;36.72;;;14.75;;
5762;SDS011;2906;53.282;9.508;2022-11-27T06:09:19;38.65;;;15.75;;
5762;SDS011;2906;53.282;9.508;2022-11-27T06:10:21;52.65;;;16.63;;
5762;SDS011;2906;53.282;9.508;2022-11-27T06:11:23;48.80;;;17.10;;
5762;SDS011;2906;53.282;9.508;2022-11-27T06:12:25;43.05;;;15.85;;
5762;SDS011;2906;53.282;9.508;2022-11-27T06:13:27;45.13;;;15.13;;
5762;SDS011;2906;53.282;9.508;2022-11-27T06:14:28;44.67;;;17.00;;
5762;SDS011;2906;53.282;9.508;2022-11-27T06:15:34;48.92;;;16.20;;
5762;SDS011;2906;53.282;9.508;2022-11-27T06:16:36;44.42;;;16.00;;
5762;SDS011;2906;53.282;9.508;2022-11-27T06:17:38;41.80;;;17.48;;
5762;SDS011;2906;53.282;9.508;2022-11-27T06:18:39;44.67;;;15.55;;
5762;SDS011;2906;53.282;9.508;2022-11-27T06:19:42;47.28;;;15.77;;
5762;SDS011;2906;53.282;9.508;2022-11-27T06:20:43;48.03;;;16.08;;